Time;durP1;ratioP1;P1;durP2;ratioP2;P2;SDS_P1;SDS_P2;PMS_P1;PMS_P2;Temp;Humidity;BMP_temperature;BMP_pressure;BME280_temperature;BME280_humidity;BME280_pressure;Samples;Min_cycle;Max_cycle;Signal;HPM_P1;HPM_P2
2023/08/10 00:00:51;;;;;;;;;;;;;;;25.68;73.36;101953.25;5114737;28;19924;-51
2023/08/10 00:03:16;;;;;;;;;;;;;;;25.22;76.48;101949.25;5115442;28;19928;-53
2023/08/10 00:05:42;;;;;;;;;;;;;;;25.64;75.75;101950.22;5114437;28;19920;-57
2023/08/10 00:08:07;;;;;;;;;;;;;;;25.58;76.17;101941.16;5114920;28;19955;-52
2023/08/10 00:10:32;;;;;;;;;;;;;;;24.90;79.76;101945.56;5114836;28;19916;-55
2023/08/10 00:12:58;;;;;;;;;;;;;;;24.70;82.49;101940.78;5114571;28;19927;-54
2023/08/10 00:15:23;;;;;;;;;;;;;;;24.46;86.75;101946.66;5114125;28;19924;-55
2023/08/10 00:17:49;;;;;;;;;;;;;;;24.68;86.23;101942.13;5114743;28;19916;-55
2023/08/10 00:20:14;;;;;;;;;;;;;;;24.54;86.04;101949.97;5114596;28;19923;-54
2023/08/10 00:22:40;;;;;;;;;;;;;;;24.69;85.85;101943.78;5115879;28;19923;-54
2023/08/10 00:25:06;;;;;;;;;;;;;;;24.70;86.66;101940.78;5125912;28;19922;-54
2023/08/10 00:27:31;;;;;;;;;;;;;;;23.78;94.23;101936.22;5110862;28;19931;-52
2023/08/10 00:29:59;;;;;;;;;;;;;;;24.08;93.06;101934.88;5119178;28;19938;-53
2023/08/10 00:32:25;;;;;;;;;;;;;;;24.10;93.73;101937.34;5110251;28;19954;-53
2023/08/10 00:34:50;;;;;;;;;;;;;;;23.94;94.51;101936.34;5117931;28;19920;-55
2023/08/10 00:37:16;;;;;;;;;;;;;;;24.32;92.34;101948.19;5118145;28;19951;-51
2023/08/10 00:39:41;;;;;;;;;;;;;;;24.34;92.56;101937.81;5118807;28;19931;-54
2023/08/10 00:42:07;;;;;;;;;;;;;;;24.58;89.22;101942.88;5118207;28;19949;-54
2023/08/10 00:44:32;;;;;;;;;;;;;;;24.47;91.23;101942.00;5135236;28;19983;-52
2023/08/10 00:46:59;;;;;;;;;;;;;;;24.98;86.48;101943.41;5120641;28;19927;-52
2023/08/10 00:49:25;;;;;;;;;;;;;;;24.77;87.27;101941.41;5129481;28;19915;-55
2023/08/10 00:51:51;;;;;;;;;;;;;;;24.96;85.19;101938.22;5117953;28;19916;-52
2023/08/10 00:54:16;;;;;;;;;;;;;;;24.40;89.89;101942.22;5133932;28;19941;-55
2023/08/10 00:56:42;;;;;;;;;;;;;;;24.54;89.17;101944.50;5100050;28;19920;-51
2023/08/10 00:59:08;;;;;;;;;;;;;;;24.79;87.21;101948.53;5117968;28;19916;-55
2023/08/10 01:01:34;;;;;;;;;;;;;;;24.60;87.83;101943.44;5117381;28;19995;-55
2023/08/10 01:03:59;;;;;;;;;;;;;;;24.36;91.00;101938.38;5099754;28;19927;-51
2023/08/10 01:06:25;;;;;;;;;;;;;;;24.27;92.29;101943.50;5133228;28;19916;-54
2023/08/10 01:09:11;;;;;;;;;;;;;;;24.11;94.00;101939.81;5109782;28;19916;-54
2023/08/10 01:11:39;;;;;;;;;;;;;;;24.02;95.44;101950.41;5105309;28;19919;-53
2023/08/10 01:14:05;;;;;;;;;;;;;;;24.23;94.51;101955.22;5117412;28;19943;-53
2023/08/10 01:16:33;;;;;;;;;;;;;;;24.35;93.26;101939.47;5116867;28;19916;-53
2023/08/10 01:18:59;;;;;;;;;;;;;;;24.06;95.08;101947.97;5123869;28;19983;-51
2023/08/10 01:21:48;;;;;;;;;;;;;;;24.09;95.85;101947.47;5133488;28;19916;-53
2023/08/10 01:24:25;;;;;;;;;;;;;;;24.34;93.38;101956.94;5101679;28;19912;-55
2023/08/10 01:26:53;;;;;;;;;;;;;;;24.64;90.18;101947.28;5118930;28;19994;-55
2023/08/10 01:29:19;;;;;;;;;;;;;;;24.46;91.10;101952.13;5117212;28;19923;-55
2023/08/10 01:31:46;;;;;;;;;;;;;;;24.51;90.79;101950.50;5117068;28;19975;-57
2023/08/10 01:34:11;;;;;;;;;;;;;;;24.52;90.36;101949.41;5140584;27;19922;-52
2023/08/10 01:36:37;;;;;;;;;;;;;;;24.57;90.02;101949.44;5134769;28;19983;-54
2023/08/10 01:39:03;;;;;;;;;;;;;;;24.38;90.98;101957.25;5099441;28;19916;-54
2023/08/10 01:41:28;;;;;;;;;;;;;;;24.52;90.31;101952.16;5085435;28;19916;-53
2023/08/10 01:43:54;;;;;;;;;;;;;;;24.52;90.11;101955.69;5120969;28;19916;-53
2023/08/10 01:46:21;;;;;;;;;;;;;;;24.36;92.15;101956.69;5130661;28;19938;-52
2023/08/10 01:48:48;;;;;;;;;;;;;;;24.33;92.24;101961.56;5132809;28;19920;-53
2023/08/10 01:51:15;;;;;;;;;;;;;;;24.45;92.61;101961.41;5116613;28;19916;-55
2023/08/10 01:53:42;;;;;;;;;;;;;;;23.94;95.94;101950.00;5116627;28;19943;-53
2023/08/10 01:56:07;;;;;;;;;;;;;;;24.18;94.55;101954.09;5104535;28;19948;-52
2023/08/10 01:58:33;;;;;;;;;;;;;;;24.17;94.74;101952.44;5132754;28;19923;-56
2023/08/10 02:00:59;;;;;;;;;;;;;;;24.16;95.29;101939.84;5116159;28;19988;-53
2023/08/10 02:03:25;;;;;;;;;;;;;;;24.84;89.51;101948.53;5112344;28;19916;-56
2023/08/10 02:05:50;;;;;;;;;;;;;;;24.36;92.20;101941.09;5114836;28;19916;-56
2023/08/10 02:08:15;;;;;;;;;;;;;;;24.72;89.76;101945.97;5106300;28;19917;-55
2023/08/10 02:10:41;;;;;;;;;;;;;;;24.54;90.44;101937.13;5113013;28;20017;-55
2023/08/10 02:13:07;;;;;;;;;;;;;;;24.56;90.05;101943.13;5102748;28;19938;-56
2023/08/10 02:15:33;;;;;;;;;;;;;;;24.94;87.66;101945.88;5097958;28;19977;-55
2023/08/10 02:17:58;;;;;;;;;;;;;;;24.84;88.04;101935.69;5132106;28;19938;-56
2023/08/10 02:20:24;;;;;;;;;;;;;;;24.68;89.16;101939.41;5116782;28;19987;-54
2023/08/10 02:22:52;;;;;;;;;;;;;;;24.52;90.83;101943.94;5116159;28;19916;-53
2023/08/10 02:25:18;;;;;;;;;;;;;;;25.15;85.49;101938.56;5115938;28;19926;-53
2023/08/10 02:27:46;;;;;;;;;;;;;;;24.38;90.62;101932.66;5132132;28;19923;-53
2023/08/10 02:30:12;;;;;;;;;;;;;;;24.10;94.26;101932.72;5115692;28;19920;-56
2023/08/10 02:32:37;;;;;;;;;;;;;;;23.94;98.05;101937.19;5132193;28;19916;-54
2023/08/10 02:35:06;;;;;;;;;;;;;;;24.01;99.17;101939.72;5122565;28;19927;-56
2023/08/10 02:37:32;;;;;;;;;;;;;;;24.08;98.75;101950.44;5122850;28;19916;-54
2023/08/10 02:39:58;;;;;;;;;;;;;;;24.11;97.02;101950.75;5106194;28;19923;-53
2023/08/10 02:42:24;;;;;;;;;;;;;;;24.76;89.90;101955.31;5115853;28;19916;-54
2023/08/10 02:44:50;;;;;;;;;;;;;;;24.81;89.01;101958.13;5119087;28;19923;-54
2023/08/10 02:47:15;;;;;;;;;;;;;;;24.68;90.56;101962.13;5118592;28;19916;-55
2023/08/10 02:49:41;;;;;;;;;;;;;;;24.65;91.24;101962.63;5120357;28;19923;-51
2023/08/10 02:52:06;;;;;;;;;;;;;;;24.05;97.78;101960.81;5115592;28;19924;-52
2023/08/10 02:54:32;;;;;;;;;;;;;;;23.98;100.00;101957.44;5115268;28;19967;-54
2023/08/10 02:56:58;;;;;;;;;;;;;;;24.23;96.04;101957.97;5115487;28;19923;-51
2023/08/10 02:59:23;;;;;;;;;;;;;;;24.12;98.59;101959.78;5097397;28;19966;-54
2023/08/10 03:01:48;;;;;;;;;;;;;;;24.13;98.49;101956.78;5097768;28;19916;-53
2023/08/10 03:04:14;;;;;;;;;;;;;;;24.16;98.98;101959.00;5114993;28;19916;-52
2023/08/10 03:06:39;;;;;;;;;;;;;;;24.14;98.44;101963.09;5093606;28;19938;-51
2023/08/10 03:09:06;;;;;;;;;;;;;;;24.04;100.00;101956.44;5082343;28;19923;-54
2023/08/10 03:11:32;;;;;;;;;;;;;;;24.17;98.95;101970.75;5102271;28;19985;-50
2023/08/10 03:13:58;;;;;;;;;;;;;;;24.00;99.64;101970.84;5097348;28;19916;-50
2023/08/10 03:16:24;;;;;;;;;;;;;;;23.89;99.78;101970.75;5100348;28;19923;-52
2023/08/10 03:18:49;;;;;;;;;;;;;;;23.94;100.00;101966.41;5119235;28;19916;-50
2023/08/10 03:21:15;;;;;;;;;;;;;;;23.72;100.00;101967.28;5131242;28;19912;-54
2023/08/10 03:23:41;;;;;;;;;;;;;;;23.62;100.00;101957.91;5115285;28;19943;-53
2023/08/10 03:26:06;;;;;;;;;;;;;;;23.47;100.00;101964.03;5131550;28;19984;-51
2023/08/10 03:28:32;;;;;;;;;;;;;;;23.60;100.00;101968.28;5135701;28;19919;-51
2023/08/10 03:30:57;;;;;;;;;;;;;;;23.65;100.00;101972.13;5115020;28;19976;-50
2023/08/10 03:33:25;;;;;;;;;;;;;;;23.78;100.00;101969.00;5097297;28;19920;-49
2023/08/10 03:35:51;;;;;;;;;;;;;;;24.14;100.00;101966.63;5130981;28;19927;-54
2023/08/10 03:38:17;;;;;;;;;;;;;;;24.19;100.00;101966.66;5114804;28;19916;-57
2023/08/10 03:40:42;;;;;;;;;;;;;;;23.96;100.00;101970.53;5117574;28;19916;-52
2023/08/10 03:43:08;;;;;;;;;;;;;;;23.97;100.00;101976.81;5097396;28;19924;-51
2023/08/10 03:45:33;;;;;;;;;;;;;;;24.09;99.92;101980.25;5114952;28;19920;-52
2023/08/10 03:47:59;;;;;;;;;;;;;;;24.39;96.26;101976.13;5096848;28;19916;-52
2023/08/10 03:50:25;;;;;;;;;;;;;;;24.59;93.06;101974.63;5130996;28;19916;-52
2023/08/10 03:52:51;;;;;;;;;;;;;;;24.51;93.65;101970.47;5131048;28;19916;-52
2023/08/10 03:55:18;;;;;;;;;;;;;;;24.44;95.73;101981.63;5117161;28;19924;-55
2023/08/10 03:57:44;;;;;;;;;;;;;;;24.39;95.70;101981.59;5101976;28;19916;-52
2023/08/10 04:00:11;;;;;;;;;;;;;;;24.23;97.80;101982.56;5134683;28;19916;-53
2023/08/10 04:02:44;;;;;;;;;;;;;;;24.42;98.30;101986.53;5118726;28;19920;-55
2023/08/10 04:05:10;;;;;;;;;;;;;;;24.67;95.15;101984.25;5102964;28;19916;-54
2023/08/10 04:07:40;;;;;;;;;;;;;;;24.66;95.18;101988.88;5126201;28;19912;-52
2023/08/10 04:10:06;;;;;;;;;;;;;;;24.71;96.21;101991.66;5138711;27;19916;-52
2023/08/10 04:12:32;;;;;;;;;;;;;;;24.59;95.68;102001.97;5120656;28;19923;-54
2023/08/10 04:14:58;;;;;;;;;;;;;;;24.58;95.96;101998.41;5118324;28;19942;-51
2023/08/10 04:17:24;;;;;;;;;;;;;;;24.64;97.13;101996.53;5120280;28;19916;-53
2023/08/10 04:19:49;;;;;;;;;;;;;;;24.46;98.47;101993.13;5135343;28;19937;-54
2023/08/10 04:22:15;;;;;;;;;;;;;;;24.42;98.80;101994.72;5121191;28;19916;-56
2023/08/10 04:24:41;;;;;;;;;;;;;;;24.40;100.00;101996.09;5118346;28;19916;-55
2023/08/10 04:27:06;;;;;;;;;;;;;;;24.19;100.00;101991.25;5118177;28;19923;-54
2023/08/10 04:29:32;;;;;;;;;;;;;;;24.24;100.00;101981.47;5118132;28;19916;-53
2023/08/10 04:31:57;;;;;;;;;;;;;;;24.25;100.00;101986.66;5118674;28;19916;-52
2023/08/10 04:34:24;;;;;;;;;;;;;;;24.15;100.00;101984.66;5118089;28;19927;-53
2023/08/10 04:36:49;;;;;;;;;;;;;;;24.37;100.00;101991.16;5127767;28;19951;-54
2023/08/10 04:39:15;;;;;;;;;;;;;;;24.20;100.00;101987.44;5128121;28;19942;-52
2023/08/10 04:41:40;;;;;;;;;;;;;;;24.34;100.00;101989.75;5117668;28;19922;-55
2023/08/10 04:44:06;;;;;;;;;;;;;;;24.19;100.00;101991.25;5118021;28;19916;-55
2023/08/10 04:46:31;;;;;;;;;;;;;;;24.16;100.00;101990.97;5124382;28;19924;-55
2023/08/10 04:48:57;;;;;;;;;;;;;;;24.17;100.00;101987.97;5125010;28;19920;-54
2023/08/10 04:51:22;;;;;;;;;;;;;;;24.22;100.00;101989.09;5117630;28;19920;-56
2023/08/10 04:53:48;;;;;;;;;;;;;;;24.20;100.00;101995.63;5117804;28;19991;-54
2023/08/10 04:56:13;;;;;;;;;;;;;;;24.25;100.00;101994.06;5121340;28;19928;-56
2023/08/10 04:58:39;;;;;;;;;;;;;;;24.28;100.00;102001.72;5121662;28;19916;-55
2023/08/10 05:01:04;;;;;;;;;;;;;;;24.19;100.00;101999.44;5117651;28;19923;-54
2023/08/10 05:03:30;;;;;;;;;;;;;;;24.13;100.00;102005.16;5117745;28;19916;-55
2023/08/10 05:05:56;;;;;;;;;;;;;;;24.20;100.00;102006.56;5117252;28;19954;-56
2023/08/10 05:08:24;;;;;;;;;;;;;;;24.05;100.00;102000.97;5117058;28;19927;-55
2023/08/10 05:10:50;;;;;;;;;;;;;;;23.89;100.00;102003.53;5119112;28;19924;-57
2023/08/10 05:13:15;;;;;;;;;;;;;;;23.99;100.00;101991.88;5117381;28;19988;-54
2023/08/10 05:15:41;;;;;;;;;;;;;;;23.88;100.00;102001.88;5116815;28;19947;-52
2023/08/10 05:18:06;;;;;;;;;;;;;;;23.56;100.00;102002.63;5106517;28;19920;-54
2023/08/10 05:20:32;;;;;;;;;;;;;;;23.69;100.00;101993.22;5106102;28;19916;-52
2023/08/10 05:22:57;;;;;;;;;;;;;;;24.00;100.00;101988.06;5117035;28;19916;-56
2023/08/10 05:25:23;;;;;;;;;;;;;;;24.13;100.00;101986.84;5117115;28;19981;-56
2023/08/10 05:27:49;;;;;;;;;;;;;;;24.25;100.00;101983.13;5116883;28;19916;-54
2023/08/10 05:30:14;;;;;;;;;;;;;;;24.37;100.00;101988.41;5103107;28;19919;-53
2023/08/10 05:32:43;;;;;;;;;;;;;;;24.17;100.00;101989.88;5116948;28;19916;-52
2023/08/10 05:35:08;;;;;;;;;;;;;;;24.55;100.00;101987.97;5116809;28;19934;-54
2023/08/10 05:37:34;;;;;;;;;;;;;;;25.29;100.00;101984.59;5116828;28;19916;-50
2023/08/10 05:40:00;;;;;;;;;;;;;;;25.53;99.26;101984.97;5116648;28;19915;-50
2023/08/10 05:42:26;;;;;;;;;;;;;;;25.85;96.96;101989.44;5116615;28;19927;-49
2023/08/10 05:44:52;;;;;;;;;;;;;;;25.82;96.54;101989.16;5116357;28;20422;-50
2023/08/10 05:47:18;;;;;;;;;;;;;;;25.05;100.00;101983.13;5110053;28;19916;-51
2023/08/10 05:49:43;;;;;;;;;;;;;;;25.02;100.00;101978.19;5104876;28;19954;-52
2023/08/10 05:52:09;;;;;;;;;;;;;;;24.00;100.00;101979.84;5098667;28;19917;-52
2023/08/10 05:54:34;;;;;;;;;;;;;;;24.14;100.00;101977.56;5114337;28;19916;-51
2023/08/10 05:57:01;;;;;;;;;;;;;;;24.90;100.00;101980.28;5114441;28;19983;-53
2023/08/10 05:59:26;;;;;;;;;;;;;;;24.83;100.00;101980.56;5116196;28;19916;-53
2023/08/10 06:01:53;;;;;;;;;;;;;;;24.79;100.00;101987.63;5119332;28;19975;-57
2023/08/10 06:04:18;;;;;;;;;;;;;;;25.06;100.00;101989.44;5116155;28;19916;-50
2023/08/10 06:06:46;;;;;;;;;;;;;;;25.06;100.00;101992.16;5116851;28;19916;-53
2023/08/10 06:09:11;;;;;;;;;;;;;;;25.00;100.00;101990.47;5116225;28;19951;-54
2023/08/10 06:11:37;;;;;;;;;;;;;;;24.98;100.00;101990.75;5104079;28;19924;-52
2023/08/10 06:14:03;;;;;;;;;;;;;;;24.80;100.00;101994.75;5114148;28;19923;-55
2023/08/10 06:16:29;;;;;;;;;;;;;;;24.91;100.00;101990.16;5108198;28;20000;-54
2023/08/10 06:18:54;;;;;;;;;;;;;;;24.68;100.00;101991.34;5120588;28;19924;-55
2023/08/10 06:21:20;;;;;;;;;;;;;;;24.89;100.00;102004.09;5114611;28;19937;-52
2023/08/10 06:23:45;;;;;;;;;;;;;;;25.00;100.00;102001.41;5115763;28;19938;-52
2023/08/10 06:26:12;;;;;;;;;;;;;;;24.79;100.00;101997.75;5115224;28;19920;-54
2023/08/10 06:28:38;;;;;;;;;;;;;;;24.94;100.00;101992.38;5115881;28;19923;-53
2023/08/10 06:31:07;;;;;;;;;;;;;;;25.13;100.00;101995.47;5115527;28;19975;-52
2023/08/10 06:33:32;;;;;;;;;;;;;;;24.91;100.00;101993.72;5119203;28;19923;-52
2023/08/10 06:35:58;;;;;;;;;;;;;;;24.94;100.00;102000.59;5115237;28;19920;-54
2023/08/10 06:38:25;;;;;;;;;;;;;;;24.72;100.00;101996.06;5103942;28;19943;-51
2023/08/10 06:40:50;;;;;;;;;;;;;;;25.25;100.00;101994.41;5108651;28;19926;-51
2023/08/10 06:43:16;;;;;;;;;;;;;;;25.39;100.00;101987.38;5100883;28;19917;-55
2023/08/10 06:45:49;;;;;;;;;;;;;;;25.52;100.00;101988.81;5114889;28;19932;-51
2023/08/10 06:48:14;;;;;;;;;;;;;;;25.47;100.00;101986.88;5098575;28;19916;-53
2023/08/10 06:50:40;;;;;;;;;;;;;;;25.47;100.00;101997.81;5119338;28;19948;-56
2023/08/10 06:53:07;;;;;;;;;;;;;;;25.06;100.00;101995.72;5114703;28;19916;-54
2023/08/10 06:55:32;;;;;;;;;;;;;;;25.29;100.00;101988.16;5110741;28;20002;-54
2023/08/10 06:57:59;;;;;;;;;;;;;;;25.65;100.00;101992.94;5118037;28;19915;-53
2023/08/10 07:00:25;;;;;;;;;;;;;;;25.48;100.00;101998.66;5114887;28;19924;-53
2023/08/10 07:02:53;;;;;;;;;;;;;;;25.27;98.93;101995.81;5119031;28;19991;-54
2023/08/10 07:05:28;;;;;;;;;;;;;;;25.67;95.88;101989.94;5112555;28;19979;-53
2023/08/10 07:07:55;;;;;;;;;;;;;;;25.78;90.17;101997.09;5114083;28;19916;-54
2023/08/10 07:10:20;;;;;;;;;;;;;;;26.12;87.45;101996.59;5114660;28;19962;-50
2023/08/10 07:12:46;;;;;;;;;;;;;;;25.83;86.88;101991.59;5111714;28;19916;-54
2023/08/10 07:15:11;;;;;;;;;;;;;;;25.71;86.37;101991.06;5113337;28;19928;-56
2023/08/10 07:17:37;;;;;;;;;;;;;;;25.80;81.26;101986.69;5095700;28;19959;-55
2023/08/10 07:20:05;;;;;;;;;;;;;;;25.28;79.43;101988.44;5118060;28;19926;-54
2023/08/10 07:22:31;;;;;;;;;;;;;;;25.66;77.09;101980.09;5104882;28;19922;-53
2023/08/10 07:25:00;;;;;;;;;;;;;;;25.95;68.73;101996.03;5114972;28;19955;-55
2023/08/10 07:27:26;;;;;;;;;;;;;;;25.86;70.48;101982.88;5106196;28;19927;-56
2023/08/10 07:29:51;;;;;;;;;;;;;;;26.03;69.61;101987.25;5098009;28;19916;-55
2023/08/10 07:32:18;;;;;;;;;;;;;;;25.76;67.93;101989.16;5109004;28;19949;-56
2023/08/10 07:34:44;;;;;;;;;;;;;;;26.01;68.94;101986.72;5107777;28;19976;-56
2023/08/10 07:37:10;;;;;;;;;;;;;;;26.36;70.43;101987.84;5108893;28;19927;-54
2023/08/10 07:39:36;;;;;;;;;;;;;;;25.99;74.28;102002.59;5122643;28;19912;-53
2023/08/10 07:42:01;;;;;;;;;;;;;;;26.00;77.49;101993.28;5111844;28;19928;-55
2023/08/10 07:44:27;;;;;;;;;;;;;;;26.10;76.51;102001.53;5118780;28;19942;-54
2023/08/10 07:46:52;;;;;;;;;;;;;;;26.60;71.03;102001.81;5113855;28;20041;-56
2023/08/10 07:49:18;;;;;;;;;;;;;;;25.96;71.89;102001.25;5113495;28;20350;-52
2023/08/10 07:51:47;;;;;;;;;;;;;;;26.17;68.78;102004.84;5112291;28;19924;-52
2023/08/10 07:54:13;;;;;;;;;;;;;;;26.16;59.40;102005.94;5118410;28;19958;-55
2023/08/10 07:56:39;;;;;;;;;;;;;;;26.24;56.89;102009.22;5117898;28;19926;-53
2023/08/10 07:59:05;;;;;;;;;;;;;;;26.24;56.98;102001.84;5118531;28;19916;-50
2023/08/10 08:01:30;;;;;;;;;;;;;;;25.97;58.11;102010.28;5109134;28;19999;-55
2023/08/10 08:03:56;;;;;;;;;;;;;;;26.63;62.20;102011.41;5118193;28;19990;-53
2023/08/10 08:06:21;;;;;;;;;;;;;;;26.62;58.92;102004.28;5115760;28;19969;-55
2023/08/10 08:08:47;;;;;;;;;;;;;;;26.47;60.34;102007.88;5109318;28;19988;-51
2023/08/10 08:11:12;;;;;;;;;;;;;;;26.73;59.68;102013.31;5107664;28;19916;-54
2023/08/10 08:13:38;;;;;;;;;;;;;;;26.82;57.69;102014.38;5118835;28;19917;-56
2023/08/10 08:16:03;;;;;;;;;;;;;;;27.08;56.94;102016.28;5109807;28;19983;-52
2023/08/10 08:18:43;;;;;;;;;;;;;;;27.59;55.63;102021.56;5117989;28;19927;-53
2023/08/10 08:21:09;;;;;;;;;;;;;;;27.53;55.48;102024.63;5113150;28;19990;-52
2023/08/10 08:23:34;;;;;;;;;;;;;;;28.29;52.87;102021.69;5127495;28;19982;-54
2023/08/10 08:26:00;;;;;;;;;;;;;;;27.79;54.06;102024.47;5118037;28;19920;-56
2023/08/10 08:28:25;;;;;;;;;;;;;;;28.77;53.15;102021.78;5117901;28;19918;-53
2023/08/10 08:30:51;;;;;;;;;;;;;;;28.59;52.90;102019.75;5118063;28;19916;-54
2023/08/10 08:33:19;;;;;;;;;;;;;;;28.74;54.41;102018.81;5115988;28;19955;-54
2023/08/10 08:35:45;;;;;;;;;;;;;;;28.67;52.03;102019.16;5117784;28;19991;-55
2023/08/10 08:38:11;;;;;;;;;;;;;;;28.33;52.39;102028.25;5111878;28;20468;-53
2023/08/10 08:40:36;;;;;;;;;;;;;;;28.60;51.42;102027.75;5117982;28;19916;-54
2023/08/10 08:43:03;;;;;;;;;;;;;;;29.09;50.03;102033.31;5119610;28;19915;-54
2023/08/10 08:45:28;;;;;;;;;;;;;;;29.25;49.49;102031.19;5117710;28;20370;-51
2023/08/10 08:47:54;;;;;;;;;;;;;;;29.34;48.59;102034.94;5117780;28;19916;-53
2023/08/10 08:50:19;;;;;;;;;;;;;;;28.94;48.72;102026.03;5121783;28;19979;-52
2023/08/10 08:52:45;;;;;;;;;;;;;;;28.60;48.58;102022.22;5117608;28;19916;-54
2023/08/10 08:55:11;;;;;;;;;;;;;;;27.93;50.21;102024.69;5117493;28;19931;-53
2023/08/10 08:57:37;;;;;;;;;;;;;;;29.21;49.16;102027.38;5117817;28;19920;-53
2023/08/10 09:00:04;;;;;;;;;;;;;;;28.85;49.15;102025.06;5117521;28;19923;-54
2023/08/10 09:02:30;;;;;;;;;;;;;;;28.70;48.09;102026.81;5105962;28;19980;-53
2023/08/10 09:04:59;;;;;;;;;;;;;;;28.51;47.77;102035.00;5116577;28;19965;-51
2023/08/10 09:07:25;;;;;;;;;;;;;;;28.53;48.88;102031.94;5106341;28;19916;-56
2023/08/10 09:09:51;;;;;;;;;;;;;;;28.82;48.24;102018.19;5117129;28;19920;-54
2023/08/10 09:12:35;;;;;;;;;;;;;;;28.47;48.88;102034.72;5132605;28;19948;-55
2023/08/10 09:15:05;;;;;;;;;;;;;;;28.59;49.21;102026.09;5109283;28;19916;-52
2023/08/10 09:17:31;;;;;;;;;;;;;;;28.48;48.11;102030.88;5114980;28;19934;-51
2023/08/10 09:19:57;;;;;;;;;;;;;;;28.89;48.08;102026.09;5117004;28;19931;-52
2023/08/10 09:22:39;;;;;;;;;;;;;;;28.69;48.46;102022.44;5118629;28;19924;-52
2023/08/10 09:25:06;;;;;;;;;;;;;;;29.16;47.22;102020.00;5116970;28;19916;-54
2023/08/10 09:27:32;;;;;;;;;;;;;;;28.86;48.63;102012.94;5117042;28;19920;-53
2023/08/10 09:29:58;;;;;;;;;;;;;;;29.43;47.63;102020.53;5109718;28;19921;-55
2023/08/10 09:32:23;;;;;;;;;;;;;;;29.66;46.37;102023.53;5120321;28;19916;-55
2023/08/10 09:34:48;;;;;;;;;;;;;;;29.71;46.02;102032.56;5116606;28;20003;-51
2023/08/10 09:37:14;;;;;;;;;;;;;;;29.53;46.59;102031.44;5112158;28;19916;-55
2023/08/10 09:39:40;;;;;;;;;;;;;;;29.86;45.87;102030.66;5117012;28;19916;-56
2023/08/10 09:42:06;;;;;;;;;;;;;;;28.98;47.60;102032.59;5116541;28;19916;-53
2023/08/10 09:44:47;;;;;;;;;;;;;;;28.86;47.50;102026.69;5116769;28;19920;-54
2023/08/10 09:47:14;;;;;;;;;;;;;;;28.90;47.55;102025.00;5116390;28;19916;-54
2023/08/10 09:49:52;;;;;;;;;;;;;;;29.47;46.11;102013.31;5116698;28;19979;-56
2023/08/10 09:52:18;;;;;;;;;;;;;;;29.91;46.42;102017.63;5126736;28;19916;-54
2023/08/10 09:54:44;;;;;;;;;;;;;;;29.50;47.79;102017.41;5115825;28;19922;-54
2023/08/10 09:57:09;;;;;;;;;;;;;;;29.47;47.07;102021.56;5115847;28;19921;-56
2023/08/10 09:59:35;;;;;;;;;;;;;;;30.13;47.56;102024.50;5116238;28;19916;-57
2023/08/10 10:02:01;;;;;;;;;;;;;;;30.36;44.95;102032.13;5112635;28;19912;-55
2023/08/10 10:04:28;;;;;;;;;;;;;;;30.68;44.49;102033.25;5124354;28;19923;-53
2023/08/10 10:06:54;;;;;;;;;;;;;;;32.14;41.20;102027.13;5112653;28;19923;-57
2023/08/10 10:09:20;;;;;;;;;;;;;;;31.96;41.47;102025.34;5115769;28;19916;-56
2023/08/10 10:11:46;;;;;;;;;;;;;;;32.30;42.56;102030.31;5119206;28;19927;-56
2023/08/10 10:14:12;;;;;;;;;;;;;;;33.63;39.19;102039.16;5115266;28;19979;-56
2023/08/10 10:16:37;;;;;;;;;;;;;;;34.62;37.70;102036.78;5115750;28;19920;-52
2023/08/10 10:19:03;;;;;;;;;;;;;;;35.25;36.88;102036.97;5103835;28;19916;-52
2023/08/10 10:21:28;;;;;;;;;;;;;;;35.56;36.15;102038.59;5132630;28;19926;-54
2023/08/10 10:23:58;;;;;;;;;;;;;;;36.56;34.34;102050.94;5134635;27;19923;-54
2023/08/10 10:26:24;;;;;;;;;;;;;;;36.41;34.44;102049.56;5115632;28;19928;-50
2023/08/10 10:29:11;;;;;;;;;;;;;;;36.85;33.43;102049.09;5115637;28;19916;-55
2023/08/10 10:31:38;;;;;;;;;;;;;;;36.51;33.71;102061.44;5121838;28;20011;-56
2023/08/10 10:34:04;;;;;;;;;;;;;;;36.39;33.43;102067.81;5115701;28;19916;-55
2023/08/10 10:36:33;;;;;;;;;;;;;;;37.77;32.11;102059.06;5115569;28;19966;-55
2023/08/10 10:39:11;;;;;;;;;;;;;;;36.31;33.49;102063.97;5115899;28;19931;-55
2023/08/10 10:41:40;;;;;;;;;;;;;;;36.73;34.14;102063.84;5119424;28;19924;-56
2023/08/10 10:44:08;;;;;;;;;;;;;;;37.52;32.41;102053.56;5108789;28;19931;-55
2023/08/10 10:46:33;;;;;;;;;;;;;;;36.20;33.52;102046.03;5115553;28;19938;-53
2023/08/10 10:49:06;;;;;;;;;;;;;;;35.94;33.87;102052.66;5107730;28;19920;-52
2023/08/10 10:51:42;;;;;;;;;;;;;;;35.17;35.03;102048.97;5116965;28;19941;-55
2023/08/10 10:54:07;;;;;;;;;;;;;;;36.01;34.49;102047.38;5116144;28;19969;-55
2023/08/10 10:56:33;;;;;;;;;;;;;;;36.72;32.98;102056.63;5118625;28;19929;-54
2023/08/10 10:58:59;;;;;;;;;;;;;;;37.47;31.53;102051.00;5114802;28;19916;-55
2023/08/10 11:01:24;;;;;;;;;;;;;;;38.02;31.19;102059.00;5115205;28;19943;-55
2023/08/10 11:03:54;;;;;;;;;;;;;;;38.26;30.63;102049.69;5115063;28;19920;-58
2023/08/10 11:06:20;;;;;;;;;;;;;;;38.34;30.94;102047.06;5114593;28;19912;-57
2023/08/10 11:08:51;;;;;;;;;;;;;;;38.56;30.06;102046.47;5115053;28;19931;-58
2023/08/10 11:11:16;;;;;;;;;;;;;;;39.20;29.78;102053.97;5115025;28;19947;-57
2023/08/10 11:13:42;;;;;;;;;;;;;;;38.62;30.31;102047.03;5115184;28;19916;-58
2023/08/10 11:16:09;;;;;;;;;;;;;;;39.39;30.26;102049.63;5114933;28;19924;-57
2023/08/10 11:18:37;;;;;;;;;;;;;;;39.32;29.86;102050.25;5114589;28;21293;-56
2023/08/10 11:21:05;;;;;;;;;;;;;;;39.19;29.73;102060.75;5106959;28;19916;-55
2023/08/10 11:23:31;;;;;;;;;;;;;;;38.89;29.56;102047.25;5119222;28;19990;-58
2023/08/10 11:25:57;;;;;;;;;;;;;;;38.58;29.61;102043.34;5121200;28;19976;-56
2023/08/10 11:28:25;;;;;;;;;;;;;;;38.58;29.61;102043.34;5114576;28;19916;-58
2023/08/10 11:30:50;;;;;;;;;;;;;;;39.89;28.21;102049.03;5115180;28;19923;-57
2023/08/10 11:33:16;;;;;;;;;;;;;;;39.64;28.16;102047.34;5114867;28;19916;-56
2023/08/10 11:35:43;;;;;;;;;;;;;;;40.96;27.27;102045.72;5114758;28;19920;-55
2023/08/10 11:38:09;;;;;;;;;;;;;;;40.53;27.72;102041.03;5114928;28;19916;-58
2023/08/10 11:40:35;;;;;;;;;;;;;;;39.00;29.82;102039.97;5121387;28;19923;-56
2023/08/10 11:43:07;;;;;;;;;;;;;;;37.63;31.11;102037.16;5120410;28;19923;-56
2023/08/10 11:45:33;;;;;;;;;;;;;;;37.29;31.26;102031.75;5131316;28;19951;-54
2023/08/10 11:47:59;;;;;;;;;;;;;;;37.73;30.86;102030.25;5114948;28;19924;-57
2023/08/10 11:50:26;;;;;;;;;;;;;;;37.04;31.16;102027.38;5114841;28;19951;-57
2023/08/10 11:52:55;;;;;;;;;;;;;;;36.94;31.07;102023.06;5114707;28;19953;-54
2023/08/10 11:55:21;;;;;;;;;;;;;;;36.90;31.96;102019.34;5114673;28;19951;-54
2023/08/10 11:57:48;;;;;;;;;;;;;;;36.57;31.86;102021.91;5114710;28;19924;-56
2023/08/10 12:00:16;;;;;;;;;;;;;;;37.13;31.64;102028.06;5116358;28;19923;-54
2023/08/10 12:02:54;;;;;;;;;;;;;;;37.06;31.51;102019.47;5104261;28;19944;-55
2023/08/10 12:05:29;;;;;;;;;;;;;;;37.15;31.61;102023.75;5108062;28;19916;-54
2023/08/10 12:07:58;;;;;;;;;;;;;;;37.16;31.42;102017.03;5102717;28;19938;-54
2023/08/10 12:10:24;;;;;;;;;;;;;;;37.17;31.16;102017.84;5114772;28;19920;-54
2023/08/10 12:12:56;;;;;;;;;;;;;;;37.88;30.94;102014.72;5114718;28;19916;-55
2023/08/10 12:15:23;;;;;;;;;;;;;;;37.51;31.20;102012.91;5114088;28;19920;-56
2023/08/10 12:17:49;;;;;;;;;;;;;;;38.25;30.65;102010.94;5114698;28;19927;-54
2023/08/10 12:20:15;;;;;;;;;;;;;;;37.96;30.93;102010.16;5117992;28;19979;-55
2023/08/10 12:22:41;;;;;;;;;;;;;;;38.36;30.46;102009.25;5112313;28;19922;-58
2023/08/10 12:25:07;;;;;;;;;;;;;;;38.76;30.47;102007.44;5124608;28;19919;-56
2023/08/10 12:27:32;;;;;;;;;;;;;;;38.90;29.56;102011.75;5118249;28;19923;-57
2023/08/10 12:29:58;;;;;;;;;;;;;;;38.46;30.20;102007.91;5118235;28;19920;-57